AR50 weather

Hess Strip
Wynne, Arkansas, United States

Public forecast

Using degrees Fahrenheit for public forecast. Weather courtesy of forecast.io.

METAR (pilot weather report)

Closest report is Newport Regional Airport, 24.2 nm (44.8 km) NNW. Retrieved UTC (0 seconds ago):

TAF (pilot weather forecast)

Forecast is more than 12 hours old.

Closest forecast is Jonesboro Municipal Airport, 37.7 nm (69.8 km) NNE. Retrieved 2019/09/22 00:36 UTC (1 day ago):

TAF KJBR 222332Z 2300/2324 19010KT P6SM SCT250 FM230500 21009KT P6SM SCT050 OVC120 FM230900 24007KT P6SM VCSH BKN040 BKN070 OVC120 TEMPO 2314/2317 -SHRA OVC012 FM231800 34007KT P6SM SCT070 SCT120